createdAt,value
2017-02-26T00:00:21.331Z,0
2017-02-26T00:01:01.713Z,0
2017-02-26T00:01:42.096Z,0
2017-02-26T00:02:22.547Z,0
2017-02-26T00:03:03.001Z,0
2017-02-26T00:03:43.441Z,0
2017-02-26T00:04:23.868Z,0
2017-02-26T00:05:04.235Z,0
2017-02-26T00:05:44.655Z,0
2017-02-26T00:06:25.527Z,0
2017-02-26T00:07:05.930Z,0
2017-02-26T00:07:46.315Z,0
2017-02-26T00:08:26.679Z,0
2017-02-26T00:09:07.149Z,0
2017-02-26T00:09:47.602Z,0
2017-02-26T00:10:28.043Z,0
2017-02-26T00:11:09.181Z,0
2017-02-26T00:11:50.210Z,0
2017-02-26T00:12:30.640Z,0
2017-02-26T00:13:11.038Z,0
2017-02-26T00:13:51.504Z,0
2017-02-26T00:14:31.952Z,0
2017-02-26T00:15:12.417Z,0
2017-02-26T00:15:52.797Z,0
2017-02-26T00:16:33.175Z,0
2017-02-26T00:17:13.589Z,0
2017-02-26T00:17:54.105Z,0
2017-02-26T00:18:34.531Z,0
2017-02-26T00:19:15.121Z,0
2017-02-26T00:19:55.950Z,0
2017-02-26T00:20:36.374Z,0
2017-02-26T00:21:16.735Z,0
2017-02-26T00:21:57.099Z,0
2017-02-26T00:22:37.541Z,0
2017-02-26T00:23:17.975Z,0
2017-02-26T00:23:58.313Z,0
2017-02-26T00:24:38.788Z,0
2017-02-26T00:25:19.231Z,0
2017-02-26T00:25:59.593Z,0
2017-02-26T00:26:39.995Z,0
2017-02-26T00:27:20.440Z,0
2017-02-26T00:28:00.822Z,0
2017-02-26T00:28:41.197Z,0
2017-02-26T00:29:21.620Z,0
2017-02-26T00:30:02.050Z,0
2017-02-26T00:30:42.568Z,0
2017-02-26T00:31:22.976Z,0
2017-02-26T00:32:03.360Z,0
2017-02-26T00:32:43.816Z,0
2017-02-26T00:33:24.187Z,0
2017-02-26T00:34:04.576Z,0
2017-02-26T00:34:45.025Z,0
2017-02-26T00:35:25.412Z,0
2017-02-26T00:36:05.989Z,0
2017-02-26T00:36:46.412Z,0
2017-02-26T00:37:26.831Z,0
2017-02-26T00:38:07.546Z,0
2017-02-26T00:38:47.675Z,0
2017-02-26T00:39:28.095Z,0
2017-02-26T00:40:08.465Z,0
2017-02-26T00:40:48.920Z,0
2017-02-26T00:41:29.318Z,0
2017-02-26T00:42:09.718Z,0
2017-02-26T00:42:50.356Z,0
2017-02-26T00:43:30.823Z,0
2017-02-26T00:44:11.268Z,0
2017-02-26T00:44:51.646Z,0
2017-02-26T00:45:32.319Z,0
2017-02-26T00:46:12.712Z,0
2017-02-26T00:46:53.226Z,0
2017-02-26T00:47:33.595Z,0
2017-02-26T00:48:13.972Z,0
2017-02-26T00:48:54.364Z,0
2017-02-26T00:49:34.767Z,0
2017-02-26T00:50:15.160Z,0
2017-02-26T00:50:55.559Z,0
2017-02-26T00:51:35.924Z,0
2017-02-26T00:52:16.337Z,0
2017-02-26T00:52:56.789Z,0
2017-02-26T00:53:37.218Z,0
2017-02-26T00:54:17.677Z,0
2017-02-26T00:54:58.042Z,0
2017-02-26T00:55:38.461Z,0
2017-02-26T00:56:18.860Z,0
2017-02-26T00:56:59.257Z,0
2017-02-26T00:57:39.698Z,0
2017-02-26T00:58:20.127Z,0
2017-02-26T00:59:00.498Z,0
2017-02-26T00:59:40.915Z,0
2017-02-26T01:00:21.319Z,0
2017-02-26T01:01:01.733Z,0
2017-02-26T01:01:42.098Z,0
2017-02-26T01:02:22.509Z,0
2017-02-26T01:03:03.056Z,0
2017-02-26T01:03:43.468Z,0
2017-02-26T01:04:23.931Z,0
2017-02-26T01:05:04.272Z,0
2017-02-26T01:05:44.682Z,0
2017-02-26T01:06:25.049Z,0
2017-02-26T01:07:05.451Z,0
2017-02-26T01:07:45.887Z,0
2017-02-26T01:08:26.305Z,0
2017-02-26T01:09:06.678Z,0
2017-02-26T01:09:47.097Z,0
2017-02-26T01:10:27.520Z,0
2017-02-26T01:11:07.964Z,0
2017-02-26T01:11:48.377Z,0
2017-02-26T01:12:28.797Z,0
2017-02-26T01:13:09.146Z,0
2017-02-26T01:13:49.541Z,0
2017-02-26T01:14:30.008Z,0
2017-02-26T01:15:10.368Z,0
2017-02-26T01:15:50.806Z,0
2017-02-26T01:16:31.169Z,0
2017-02-26T01:17:11.588Z,0
2017-02-26T01:17:52.007Z,0
2017-02-26T01:18:32.437Z,0
2017-02-26T01:19:12.815Z,0
2017-02-26T01:19:54.037Z,0
2017-02-26T01:20:34.421Z,0
2017-02-26T01:21:14.791Z,0
2017-02-26T01:21:55.213Z,0
2017-02-26T01:22:35.607Z,0
2017-02-26T01:23:16.051Z,0
2017-02-26T01:23:56.468Z,0
2017-02-26T01:24:36.877Z,0
2017-02-26T01:25:17.282Z,0
2017-02-26T01:25:57.658Z,0
2017-02-26T01:26:38.090Z,0
2017-02-26T01:27:18.496Z,0
2017-02-26T01:27:58.934Z,0
2017-02-26T01:28:39.292Z,0
2017-02-26T01:29:19.715Z,0
2017-02-26T01:30:00.157Z,0
2017-02-26T01:30:40.544Z,0
2017-02-26T01:31:20.971Z,0
2017-02-26T01:32:01.375Z,0
2017-02-26T01:32:41.751Z,0
2017-02-26T01:33:22.164Z,0
2017-02-26T01:34:02.576Z,0
2017-02-26T01:34:43.016Z,0
2017-02-26T01:35:23.567Z,0
2017-02-26T01:36:04.008Z,0
2017-02-26T01:36:44.430Z,0
2017-02-26T01:37:24.819Z,0
2017-02-26T01:38:05.283Z,0
2017-02-26T01:38:45.651Z,0
2017-02-26T01:39:26.081Z,0
2017-02-26T01:40:06.539Z,0
2017-02-26T01:40:46.955Z,0
2017-02-26T01:41:27.358Z,0
2017-02-26T01:42:07.735Z,0
2017-02-26T01:42:48.200Z,0
2017-02-26T01:43:28.605Z,0
2017-02-26T01:44:09.007Z,0
2017-02-26T01:44:49.420Z,0
2017-02-26T01:45:29.851Z,0
2017-02-26T01:46:10.253Z,0
2017-02-26T01:46:50.660Z,0
2017-02-26T01:47:31.060Z,0
2017-02-26T01:48:11.525Z,0
2017-02-26T01:48:51.931Z,0
2017-02-26T01:49:32.308Z,0
2017-02-26T01:50:12.706Z,0
2017-02-26T01:50:53.140Z,0
2017-02-26T01:51:33.571Z,0
2017-02-26T01:52:13.934Z,0
2017-02-26T01:52:54.365Z,0
2017-02-26T01:53:34.798Z,0
2017-02-26T01:54:15.164Z,0
2017-02-26T01:54:55.568Z,0
2017-02-26T01:55:36.026Z,0
2017-02-26T01:56:16.372Z,0
2017-02-26T01:56:56.804Z,0
2017-02-26T01:57:37.245Z,0
2017-02-26T01:58:17.655Z,0
2017-02-26T01:58:58.059Z,0
2017-02-26T01:59:38.470Z,0
2017-02-26T02:00:18.926Z,0
2017-02-26T02:00:59.314Z,0
2017-02-26T02:01:39.701Z,0
2017-02-26T02:02:20.129Z,0
2017-02-26T02:03:00.558Z,0
2017-02-26T02:03:41.018Z,0
2017-02-26T02:04:21.424Z,0
2017-02-26T02:05:01.830Z,0
2017-02-26T02:05:42.246Z,0
2017-02-26T02:06:22.617Z,0
2017-02-26T02:07:03.120Z,0
2017-02-26T02:07:43.545Z,0
2017-02-26T02:08:23.971Z,0
2017-02-26T02:09:04.323Z,0
2017-02-26T02:09:44.770Z,0
2017-02-26T02:10:25.134Z,0
2017-02-26T02:11:05.544Z,0
2017-02-26T02:11:45.930Z,0
2017-02-26T02:12:26.344Z,0
2017-02-26T02:13:06.752Z,0
2017-02-26T02:13:47.195Z,0
2017-02-26T02:14:27.600Z,0
2017-02-26T02:15:07.992Z,0
2017-02-26T02:15:48.439Z,0
2017-02-26T02:16:28.833Z,0
2017-02-26T02:17:09.252Z,0
2017-02-26T02:17:49.712Z,0
2017-02-26T02:18:30.100Z,0
2017-02-26T02:19:10.561Z,0
2017-02-26T02:19:50.903Z,0
2017-02-26T02:20:31.320Z,0
2017-02-26T02:21:11.761Z,0
2017-02-26T02:21:52.175Z,0
2017-02-26T02:22:32.536Z,0
2017-02-26T02:23:12.913Z,0
2017-02-26T02:23:53.371Z,0
2017-02-26T02:24:33.801Z,0
2017-02-26T02:25:14.242Z,0
2017-02-26T02:25:54.625Z,0
2017-02-26T02:26:35.063Z,0
2017-02-26T02:27:15.405Z,0
2017-02-26T02:27:55.817Z,0
2017-02-26T02:28:36.274Z,0
2017-02-26T02:29:16.645Z,0
2017-02-26T02:29:57.064Z,0
2017-02-26T02:30:37.501Z,0
2017-02-26T02:31:17.908Z,0
2017-02-26T02:31:58.314Z,0
2017-02-26T02:32:38.724Z,0
2017-02-26T02:33:19.150Z,0
2017-02-26T02:33:59.562Z,0
2017-02-26T02:34:39.908Z,0
2017-02-26T02:35:20.318Z,0
2017-02-26T02:36:00.761Z,0
2017-02-26T02:36:41.133Z,0
2017-02-26T02:37:21.585Z,0
2017-02-26T02:38:01.968Z,0
2017-02-26T02:38:42.385Z,0
2017-02-26T02:39:22.759Z,0
2017-02-26T02:40:03.179Z,0
2017-02-26T02:40:43.556Z,0
2017-02-26T02:41:23.985Z,0
2017-02-26T02:42:04.384Z,0
2017-02-26T02:42:44.831Z,0
2017-02-26T02:43:25.229Z,0
2017-02-26T02:44:05.625Z,0
2017-02-26T02:44:46.049Z,0
2017-02-26T02:45:26.454Z,0
2017-02-26T02:46:06.894Z,0
2017-02-26T02:46:47.273Z,0
2017-02-26T02:47:27.685Z,0
2017-02-26T02:48:08.105Z,0
2017-02-26T02:48:48.573Z,0
2017-02-26T02:49:28.950Z,0
2017-02-26T02:50:09.346Z,0
2017-02-26T02:50:49.742Z,0
2017-02-26T02:51:30.146Z,0
2017-02-26T02:52:10.571Z,0
2017-02-26T02:52:50.964Z,0
2017-02-26T02:53:31.376Z,0
2017-02-26T02:54:11.743Z,0
2017-02-26T02:54:52.177Z,0
2017-02-26T02:55:32.612Z,0
2017-02-26T02:56:13.038Z,0
2017-02-26T02:56:53.385Z,0
2017-02-26T02:57:33.814Z,0
2017-02-26T02:58:14.276Z,0
2017-02-26T02:58:54.696Z,0
2017-02-26T02:59:35.084Z,0
2017-02-26T03:00:15.550Z,0
2017-02-26T03:00:55.934Z,0
2017-02-26T03:01:36.338Z,0
2017-02-26T03:02:16.745Z,0
2017-02-26T03:02:57.146Z,0
2017-02-26T03:03:37.556Z,0
2017-02-26T03:04:17.977Z,0
2017-02-26T03:04:58.381Z,0
2017-02-26T03:05:38.710Z,0
2017-02-26T03:06:19.143Z,0
2017-02-26T03:06:59.570Z,0
2017-02-26T03:07:39.987Z,0
2017-02-26T03:08:20.418Z,0
2017-02-26T03:09:00.867Z,0
2017-02-26T03:09:41.258Z,0
2017-02-26T03:10:21.699Z,0
2017-02-26T03:11:02.096Z,0
2017-02-26T03:11:42.511Z,0
2017-02-26T03:12:22.927Z,0
2017-02-26T03:13:03.347Z,0
2017-02-26T03:13:43.754Z,0
2017-02-26T03:14:24.121Z,0
2017-02-26T03:15:04.552Z,0
2017-02-26T03:15:44.989Z,0
2017-02-26T03:16:25.353Z,0
2017-02-26T03:17:05.783Z,0
2017-02-26T03:17:46.201Z,0
2017-02-26T03:18:26.669Z,0
2017-02-26T03:19:07.110Z,0
2017-02-26T03:19:47.504Z,0
2017-02-26T03:20:27.876Z,0
2017-02-26T03:21:08.267Z,0
2017-02-26T03:21:48.677Z,0
2017-02-26T03:22:29.116Z,0
2017-02-26T03:23:09.474Z,0
2017-02-26T03:23:49.889Z,0
2017-02-26T03:24:30.335Z,0
2017-02-26T03:25:10.754Z,0
2017-02-26T03:25:51.108Z,0
2017-02-26T03:26:31.534Z,0
2017-02-26T03:27:11.955Z,0
2017-02-26T03:27:52.356Z,0
2017-02-26T03:28:32.802Z,0
2017-02-26T03:29:13.202Z,0
2017-02-26T03:29:53.597Z,0
2017-02-26T03:30:34.047Z,0
2017-02-26T03:31:14.447Z,0
2017-02-26T03:31:54.831Z,0
2017-02-26T03:32:35.286Z,0
2017-02-26T03:33:15.704Z,0
2017-02-26T03:33:56.089Z,0
2017-02-26T03:34:36.451Z,0
2017-02-26T03:35:16.867Z,0
2017-02-26T03:35:57.322Z,0
2017-02-26T03:36:37.719Z,0
2017-02-26T03:37:18.126Z,0
2017-02-26T03:37:58.548Z,0
2017-02-26T03:38:38.993Z,0
2017-02-26T03:39:19.422Z,0
2017-02-26T03:39:59.799Z,0
2017-02-26T03:40:40.263Z,0
2017-02-26T03:41:20.617Z,0
2017-02-26T03:42:01.070Z,0
2017-02-26T03:42:41.477Z,0
2017-02-26T03:43:21.907Z,0
2017-02-26T03:44:02.281Z,0
2017-02-26T03:44:42.707Z,0
2017-02-26T03:45:23.102Z,0
2017-02-26T03:46:03.477Z,0
2017-02-26T03:46:43.929Z,0
2017-02-26T03:47:24.333Z,0
2017-02-26T03:48:04.784Z,0
2017-02-26T03:48:45.155Z,0
2017-02-26T03:49:25.591Z,0
2017-02-26T03:50:06.040Z,0
2017-02-26T03:50:46.412Z,0
2017-02-26T03:51:26.773Z,0
2017-02-26T03:52:07.189Z,0
2017-02-26T03:52:47.634Z,0
2017-02-26T03:53:28.029Z,0
2017-02-26T03:54:08.450Z,0
2017-02-26T03:54:48.820Z,0
2017-02-26T03:55:29.214Z,0
2017-02-26T03:56:09.606Z,0
2017-02-26T03:56:50.042Z,0
2017-02-26T03:57:30.452Z,0
2017-02-26T03:58:10.846Z,0
2017-02-26T03:58:51.320Z,0
2017-02-26T03:59:31.700Z,0
2017-02-26T04:00:12.161Z,0
2017-02-26T04:00:52.546Z,0
2017-02-26T04:01:32.952Z,0
2017-02-26T04:02:13.353Z,0
2017-02-26T04:02:53.740Z,0
2017-02-26T04:03:34.133Z,0
2017-02-26T04:04:14.585Z,0
2017-02-26T04:04:55.102Z,0
2017-02-26T04:05:35.489Z,0
2017-02-26T04:06:15.918Z,0
2017-02-26T04:06:56.381Z,0
2017-02-26T04:07:36.789Z,0
2017-02-26T04:08:17.428Z,0
2017-02-26T04:08:57.791Z,0
2017-02-26T04:09:38.221Z,0
2017-02-26T04:10:18.667Z,0
2017-02-26T04:10:59.090Z,0
2017-02-26T04:11:39.462Z,0
2017-02-26T04:12:19.912Z,0
2017-02-26T04:13:00.306Z,0
2017-02-26T04:13:40.676Z,0
2017-02-26T04:14:21.158Z,0
2017-02-26T04:15:01.541Z,0
2017-02-26T04:15:41.925Z,0
2017-02-26T04:16:22.295Z,0
2017-02-26T04:17:02.719Z,0
2017-02-26T04:17:43.185Z,0
2017-02-26T04:18:23.620Z,0
2017-02-26T04:19:04.030Z,0
2017-02-26T04:19:44.398Z,0
2017-02-26T04:20:24.828Z,0
2017-02-26T04:21:05.204Z,0
2017-02-26T04:21:45.626Z,0
2017-02-26T04:22:26.052Z,0
2017-02-26T04:23:06.383Z,0
2017-02-26T04:23:46.869Z,0
2017-02-26T04:24:27.290Z,0
2017-02-26T04:25:07.729Z,0
2017-02-26T04:25:48.226Z,0
2017-02-26T04:26:28.653Z,0
2017-02-26T04:27:09.002Z,0
2017-02-26T04:27:49.451Z,0
2017-02-26T04:28:29.821Z,0
2017-02-26T04:29:10.209Z,0
2017-02-26T04:29:50.612Z,0
2017-02-26T04:30:31.069Z,0
2017-02-26T04:31:11.398Z,0
2017-02-26T04:31:51.832Z,0
2017-02-26T04:32:32.212Z,0
2017-02-26T04:33:12.669Z,0
2017-02-26T04:33:53.027Z,0
2017-02-26T04:34:33.477Z,0
2017-02-26T04:35:13.861Z,0
2017-02-26T04:35:54.222Z,0
2017-02-26T04:36:34.622Z,0
2017-02-26T04:37:15.082Z,0
2017-02-26T04:37:55.482Z,0
2017-02-26T04:38:35.855Z,0
2017-02-26T04:39:16.312Z,0
2017-02-26T04:39:56.650Z,0
2017-02-26T04:40:37.066Z,0
2017-02-26T04:41:17.489Z,0
2017-02-26T04:41:57.871Z,0
2017-02-26T04:42:38.319Z,0
2017-02-26T04:43:18.692Z,0
2017-02-26T04:43:59.145Z,0
2017-02-26T04:44:39.554Z,0
2017-02-26T04:45:19.914Z,0
2017-02-26T04:46:00.334Z,0
2017-02-26T04:46:40.777Z,0
2017-02-26T04:47:21.161Z,0
2017-02-26T04:48:01.521Z,0
2017-02-26T04:48:41.942Z,0
2017-02-26T04:49:22.404Z,0
2017-02-26T04:50:02.757Z,0
2017-02-26T04:50:43.290Z,0
2017-02-26T04:51:23.660Z,0
2017-02-26T04:52:04.011Z,0
2017-02-26T04:52:44.477Z,0
2017-02-26T04:53:24.932Z,0
2017-02-26T04:54:05.335Z,0
2017-02-26T04:54:45.701Z,0
2017-02-26T04:55:26.147Z,0
2017-02-26T04:56:06.502Z,0
2017-02-26T04:56:46.942Z,0
2017-02-26T04:57:27.428Z,0
2017-02-26T04:58:07.795Z,0
2017-02-26T04:58:48.161Z,0
2017-02-26T04:59:28.630Z,0
2017-02-26T05:00:09.046Z,0
2017-02-26T05:00:49.502Z,0
2017-02-26T05:01:29.911Z,0
2017-02-26T05:02:10.305Z,0
2017-02-26T05:02:50.765Z,0
2017-02-26T05:03:31.210Z,0
2017-02-26T05:04:11.694Z,0
2017-02-26T05:04:52.072Z,0
2017-02-26T05:05:32.518Z,0
2017-02-26T05:06:12.967Z,0
2017-02-26T05:06:53.354Z,0
2017-02-26T05:07:33.825Z,0
2017-02-26T05:08:14.375Z,0
2017-02-26T05:08:54.715Z,0
2017-02-26T05:09:35.158Z,0
2017-02-26T05:10:15.508Z,0
2017-02-26T05:10:55.919Z,0
2017-02-26T05:11:36.358Z,0
2017-02-26T05:12:17.100Z,0
2017-02-26T05:12:57.301Z,0
2017-02-26T05:13:37.638Z,0
2017-02-26T05:14:18.065Z,0
2017-02-26T05:14:58.497Z,0
2017-02-26T05:15:38.909Z,0
2017-02-26T05:16:19.300Z,0
2017-02-26T05:16:59.724Z,0
2017-02-26T05:17:40.288Z,0
2017-02-26T05:18:20.620Z,0
2017-02-26T05:19:01.047Z,0
2017-02-26T05:19:41.456Z,0
2017-02-26T05:20:21.880Z,0
2017-02-26T05:21:02.254Z,0
2017-02-26T05:21:42.674Z,0
2017-02-26T05:22:23.086Z,0
2017-02-26T05:23:03.489Z,0
2017-02-26T05:23:43.862Z,0
2017-02-26T05:24:24.265Z,0
2017-02-26T05:25:04.787Z,0
2017-02-26T05:25:45.152Z,0
2017-02-26T05:26:25.583Z,0
2017-02-26T05:27:06.049Z,0
2017-02-26T05:27:46.519Z,0
2017-02-26T05:28:26.967Z,0
2017-02-26T05:29:07.349Z,0
2017-02-26T05:29:47.766Z,0
2017-02-26T05:30:28.205Z,0
2017-02-26T05:31:08.635Z,0
2017-02-26T05:31:49.086Z,0
2017-02-26T05:32:29.485Z,0
2017-02-26T05:33:09.877Z,0
2017-02-26T05:33:50.263Z,0
2017-02-26T05:34:30.694Z,0
2017-02-26T05:35:11.076Z,0
2017-02-26T05:35:51.498Z,0
2017-02-26T05:36:31.906Z,0
2017-02-26T05:37:12.271Z,0
2017-02-26T05:37:52.725Z,0
2017-02-26T05:38:33.163Z,0
2017-02-26T05:39:13.568Z,0
2017-02-26T05:39:53.956Z,0
2017-02-26T05:40:34.322Z,0
2017-02-26T05:41:14.735Z,0
2017-02-26T05:41:55.145Z,0
2017-02-26T05:42:35.572Z,0
2017-02-26T05:43:15.996Z,0
2017-02-26T05:43:56.367Z,0
2017-02-26T05:44:36.800Z,0
2017-02-26T05:45:17.206Z,0
2017-02-26T05:45:57.622Z,0
2017-02-26T05:46:38.042Z,0
2017-02-26T05:47:18.463Z,0
2017-02-26T05:47:58.846Z,0
2017-02-26T05:48:39.229Z,0
2017-02-26T05:49:19.653Z,0
2017-02-26T05:50:00.061Z,0
2017-02-26T05:50:40.505Z,0
2017-02-26T05:51:20.889Z,0
2017-02-26T05:52:01.343Z,0
2017-02-26T05:52:41.724Z,0
2017-02-26T05:53:22.137Z,0
2017-02-26T05:54:02.532Z,0
2017-02-26T05:54:42.990Z,0
2017-02-26T05:55:23.386Z,0
2017-02-26T05:56:03.805Z,0
2017-02-26T05:56:44.296Z,0
2017-02-26T05:57:24.661Z,0
2017-02-26T05:58:05.044Z,0
2017-02-26T05:58:45.455Z,0
2017-02-26T05:59:25.875Z,0
2017-02-26T06:00:06.297Z,0
2017-02-26T06:00:46.692Z,0
2017-02-26T06:01:27.175Z,0
2017-02-26T06:02:07.494Z,0
2017-02-26T06:02:47.924Z,0
2017-02-26T06:03:28.334Z,0
2017-02-26T06:04:08.728Z,0
2017-02-26T06:04:49.126Z,0
2017-02-26T06:05:29.560Z,0
2017-02-26T06:06:09.953Z,0
2017-02-26T06:06:50.354Z,0
2017-02-26T06:07:30.752Z,0
2017-02-26T06:08:11.158Z,0
2017-02-26T06:08:51.586Z,0
2017-02-26T06:09:32.019Z,0
2017-02-26T06:10:12.411Z,0
2017-02-26T06:10:52.806Z,0
2017-02-26T06:11:33.205Z,0
2017-02-26T06:12:13.641Z,0
2017-02-26T06:12:54.052Z,0
2017-02-26T06:13:34.421Z,0
2017-02-26T06:14:14.858Z,0
2017-02-26T06:14:55.228Z,0
2017-02-26T06:15:35.587Z,0
2017-02-26T06:16:16.080Z,0
2017-02-26T06:16:56.426Z,5
2017-02-26T06:17:36.895Z,5
2017-02-26T06:18:17.286Z,5
2017-02-26T06:18:57.678Z,5
2017-02-26T06:19:38.035Z,5
2017-02-26T06:20:18.514Z,5
2017-02-26T06:20:58.873Z,5
2017-02-26T06:21:39.264Z,5
2017-02-26T06:22:19.666Z,5
2017-02-26T06:23:00.037Z,5
2017-02-26T06:23:40.498Z,10
2017-02-26T06:24:20.887Z,10
2017-02-26T06:25:01.371Z,10
2017-02-26T06:25:41.768Z,10
2017-02-26T06:26:22.112Z,10
2017-02-26T06:27:02.640Z,10
2017-02-26T06:27:42.981Z,10
2017-02-26T06:28:23.384Z,10
2017-02-26T06:29:03.767Z,10
2017-02-26T06:29:44.182Z,10
2017-02-26T06:30:24.645Z,15
2017-02-26T06:31:05.028Z,15
2017-02-26T06:31:45.398Z,15
2017-02-26T06:32:25.861Z,15
2017-02-26T06:33:06.277Z,15
2017-02-26T06:33:46.726Z,15
2017-02-26T06:34:27.136Z,15
2017-02-26T06:35:07.578Z,20
2017-02-26T06:35:47.934Z,20
2017-02-26T06:36:28.335Z,20
2017-02-26T06:37:08.771Z,20
2017-02-26T06:37:49.180Z,20
2017-02-26T06:38:29.588Z,20
2017-02-26T06:39:10.029Z,20
2017-02-26T06:39:50.541Z,20
2017-02-26T06:40:31.433Z,20
2017-02-26T06:41:11.778Z,20
2017-02-26T06:41:52.223Z,20
2017-02-26T06:42:32.632Z,25
2017-02-26T06:43:13.114Z,25
2017-02-26T06:43:53.604Z,25
2017-02-26T06:44:34.015Z,25
2017-02-26T06:45:14.497Z,30
2017-02-26T06:45:54.938Z,30
2017-02-26T06:46:35.291Z,30
2017-02-26T06:47:15.736Z,30
2017-02-26T06:47:56.129Z,30
2017-02-26T06:48:36.613Z,30
2017-02-26T06:49:17.061Z,30
2017-02-26T06:49:57.478Z,30
2017-02-26T06:50:37.897Z,30
2017-02-26T06:51:18.368Z,30
2017-02-26T06:51:58.755Z,35
2017-02-26T06:52:39.164Z,40
2017-02-26T06:53:19.567Z,40
2017-02-26T06:53:59.978Z,45
2017-02-26T06:54:40.527Z,45
2017-02-26T06:55:20.948Z,45
2017-02-26T06:56:01.288Z,45
2017-02-26T06:56:41.681Z,45
2017-02-26T06:57:22.089Z,45
2017-02-26T06:58:02.502Z,45
2017-02-26T06:58:43.029Z,50
2017-02-26T06:59:23.381Z,50
2017-02-26T07:00:03.747Z,50
2017-02-26T07:00:44.180Z,50
2017-02-26T07:01:24.598Z,50
2017-02-26T07:02:05.145Z,50
2017-02-26T07:02:45.470Z,45
2017-02-26T07:03:25.911Z,45
2017-02-26T07:04:06.288Z,45
2017-02-26T07:04:46.713Z,45
2017-02-26T07:05:27.154Z,45
2017-02-26T07:06:07.598Z,45
2017-02-26T07:06:48.159Z,45
2017-02-26T07:07:28.464Z,50
2017-02-26T07:08:08.852Z,50
2017-02-26T07:08:49.294Z,55
2017-02-26T07:09:29.728Z,55
2017-02-26T07:10:10.108Z,60
2017-02-26T07:10:50.535Z,60
2017-02-26T07:11:30.956Z,60
2017-02-26T07:12:11.352Z,60
2017-02-26T07:12:51.717Z,65
2017-02-26T07:13:32.123Z,65
2017-02-26T07:14:12.541Z,65
2017-02-26T07:14:53.114Z,70
2017-02-26T07:15:33.677Z,70
2017-02-26T07:16:13.936Z,75
2017-02-26T07:16:54.322Z,80
2017-02-26T07:17:34.764Z,90
2017-02-26T07:18:15.170Z,95
2017-02-26T07:18:55.593Z,105
2017-02-26T07:19:36.008Z,110
2017-02-26T07:20:16.424Z,115
2017-02-26T07:20:56.837Z,120
2017-02-26T07:21:37.243Z,125
2017-02-26T07:22:17.662Z,130
2017-02-26T07:22:58.119Z,135
2017-02-26T07:23:38.559Z,135
2017-02-26T07:24:18.976Z,140
2017-02-26T07:24:59.390Z,140
2017-02-26T07:25:39.780Z,140
2017-02-26T07:26:20.190Z,140
2017-02-26T07:27:00.592Z,140
2017-02-26T07:27:40.971Z,135
2017-02-26T07:28:21.470Z,140
2017-02-26T07:29:01.842Z,140
2017-02-26T07:29:42.212Z,140
2017-02-26T07:30:22.660Z,145
2017-02-26T07:31:03.070Z,145
2017-02-26T07:31:43.481Z,145
2017-02-26T07:32:23.859Z,150
2017-02-26T07:33:04.300Z,150
2017-02-26T07:33:44.717Z,150
2017-02-26T07:34:25.106Z,150
2017-02-26T07:35:05.532Z,150
2017-02-26T07:35:45.928Z,150
2017-02-26T07:36:26.327Z,150
2017-02-26T07:37:06.764Z,150
2017-02-26T07:37:47.162Z,150
2017-02-26T07:38:27.617Z,150
2017-02-26T07:39:07.979Z,150
2017-02-26T07:39:48.384Z,155
2017-02-26T07:40:28.734Z,160
2017-02-26T07:41:09.228Z,165
2017-02-26T07:41:49.578Z,170
2017-02-26T07:42:29.975Z,175
2017-02-26T07:43:10.580Z,180
2017-02-26T07:43:50.932Z,190
2017-02-26T07:44:31.445Z,195
2017-02-26T07:45:11.899Z,200
2017-02-26T07:45:52.178Z,200
2017-02-26T07:46:32.678Z,200
2017-02-26T07:47:12.978Z,200
2017-02-26T07:47:53.487Z,200
2017-02-26T07:48:33.767Z,200
2017-02-26T07:49:14.240Z,200
2017-02-26T07:49:54.820Z,200
2017-02-26T07:50:35.259Z,200
2017-02-26T07:51:15.702Z,205
2017-02-26T07:51:56.459Z,205
2017-02-26T07:52:36.870Z,210
2017-02-26T07:53:17.162Z,215
2017-02-26T07:53:57.582Z,220
2017-02-26T07:54:38.049Z,220
2017-02-26T07:55:18.453Z,220
2017-02-26T07:55:59.046Z,220
2017-02-26T07:56:39.353Z,210
2017-02-26T07:57:19.744Z,210
2017-02-26T07:58:00.264Z,205
2017-02-26T07:58:40.550Z,200
2017-02-26T07:59:21.000Z,200
2017-02-26T08:00:01.450Z,200
2017-02-26T08:00:42.309Z,200
2017-02-26T08:01:22.832Z,205
2017-02-26T08:02:03.340Z,205
2017-02-26T08:02:43.709Z,210
2017-02-26T08:03:24.304Z,215
2017-02-26T08:04:04.673Z,220
2017-02-26T08:04:45.101Z,220
2017-02-26T08:05:25.526Z,215
2017-02-26T08:06:05.902Z,205
2017-02-26T08:06:46.425Z,200
2017-02-26T08:07:26.852Z,190
2017-02-26T08:08:07.309Z,180
2017-02-26T08:08:47.666Z,175
2017-02-26T08:09:28.120Z,170
2017-02-26T08:10:08.535Z,170
2017-02-26T08:10:49.009Z,170
2017-02-26T08:11:29.385Z,165
2017-02-26T08:12:09.787Z,165
2017-02-26T08:12:50.233Z,155
2017-02-26T08:13:30.627Z,155
2017-02-26T08:14:10.999Z,160
2017-02-26T08:14:51.404Z,170
2017-02-26T08:15:32.010Z,180
2017-02-26T08:16:12.380Z,185
2017-02-26T08:16:53.157Z,180
2017-02-26T08:17:33.486Z,180
2017-02-26T08:18:13.852Z,180
2017-02-26T08:18:54.259Z,180
2017-02-26T08:19:34.699Z,185
2017-02-26T08:20:15.134Z,190
2017-02-26T08:20:55.622Z,205
2017-02-26T08:21:36.102Z,215
2017-02-26T08:22:16.412Z,225
2017-02-26T08:22:56.797Z,230
2017-02-26T08:23:37.200Z,230
2017-02-26T08:24:17.833Z,230
2017-02-26T08:24:58.246Z,225
2017-02-26T08:25:38.639Z,220
2017-02-26T08:26:19.033Z,210
2017-02-26T08:26:59.547Z,195
2017-02-26T08:27:39.958Z,185
2017-02-26T08:28:20.336Z,175
2017-02-26T08:29:01.505Z,170
2017-02-26T08:29:41.899Z,175
2017-02-26T08:30:22.298Z,180
2017-02-26T08:31:02.695Z,190
2017-02-26T08:31:43.201Z,205
2017-02-26T08:32:23.961Z,225
2017-02-26T08:33:04.360Z,240
2017-02-26T08:33:44.857Z,265
2017-02-26T08:34:25.281Z,295
2017-02-26T08:35:05.712Z,320
2017-02-26T08:35:46.266Z,350
2017-02-26T08:36:26.722Z,375
2017-02-26T08:37:07.104Z,395
2017-02-26T08:37:47.526Z,425
2017-02-26T08:38:28.181Z,455
2017-02-26T08:39:08.619Z,465
2017-02-26T08:39:49.023Z,475
2017-02-26T08:40:29.404Z,495
2017-02-26T08:41:09.794Z,520
2017-02-26T08:41:50.188Z,540
2017-02-26T08:42:30.616Z,560
2017-02-26T08:43:11.021Z,555
2017-02-26T08:43:51.417Z,570
2017-02-26T08:44:31.831Z,560
2017-02-26T08:45:12.226Z,545
2017-02-26T08:45:52.612Z,500
2017-02-26T08:46:33.063Z,480
2017-02-26T08:47:13.490Z,465
2017-02-26T08:47:53.872Z,445
2017-02-26T08:48:34.377Z,420
2017-02-26T08:49:14.729Z,380
2017-02-26T08:49:55.151Z,355
2017-02-26T08:50:35.603Z,345
2017-02-26T08:51:15.980Z,335
2017-02-26T08:51:56.622Z,330
2017-02-26T08:52:37.080Z,335
2017-02-26T08:53:18.140Z,350
2017-02-26T08:53:58.623Z,375
2017-02-26T08:54:39.034Z,415
2017-02-26T08:55:19.408Z,480
2017-02-26T08:55:59.824Z,515
2017-02-26T08:56:40.233Z,585
2017-02-26T08:57:20.655Z,620
2017-02-26T08:58:01.104Z,615
2017-02-26T08:58:41.508Z,545
2017-02-26T08:59:21.895Z,545
2017-02-26T09:00:02.335Z,555
2017-02-26T09:00:42.780Z,550
2017-02-26T09:01:23.163Z,560
2017-02-26T09:02:03.568Z,535
2017-02-26T09:02:43.970Z,525
2017-02-26T09:03:24.380Z,520
2017-02-26T09:04:05.452Z,505
2017-02-26T09:04:46.138Z,500
2017-02-26T09:05:27.145Z,495
2017-02-26T09:06:07.742Z,485
2017-02-26T09:06:48.124Z,475
2017-02-26T09:07:28.824Z,460
2017-02-26T09:08:09.622Z,445
2017-02-26T09:08:51.899Z,440
2017-02-26T09:09:32.430Z,440
2017-02-26T09:10:13.043Z,445
2017-02-26T09:10:53.476Z,450
2017-02-26T09:11:33.962Z,445
2017-02-26T09:12:14.548Z,435
2017-02-26T09:12:55.159Z,435
2017-02-26T09:13:35.556Z,450
2017-02-26T09:14:16.425Z,470
2017-02-26T09:14:56.762Z,470
2017-02-26T09:15:37.451Z,480
2017-02-26T09:16:18.514Z,485
2017-02-26T09:16:58.811Z,490
2017-02-26T09:17:39.691Z,490
2017-02-26T09:18:20.381Z,500
2017-02-26T09:19:00.942Z,510
2017-02-26T09:19:41.990Z,515
2017-02-26T09:20:22.532Z,525
2017-02-26T09:21:03.969Z,535
2017-02-26T09:21:44.870Z,545
2017-02-26T09:22:25.977Z,560
2017-02-26T09:23:06.427Z,595
2017-02-26T09:23:47.082Z,605
2017-02-26T09:24:27.507Z,625
2017-02-26T09:25:08.339Z,635
2017-02-26T09:25:50.289Z,660
2017-02-26T09:26:30.433Z,665
2017-02-26T09:27:11.363Z,675
2017-02-26T09:27:52.508Z,675
2017-02-26T09:28:32.985Z,685
2017-02-26T09:29:13.585Z,720
2017-02-26T09:29:54.578Z,705
2017-02-26T09:30:36.043Z,715
2017-02-26T09:31:16.581Z,705
2017-02-26T09:31:56.996Z,680
2017-02-26T09:32:37.483Z,630
2017-02-26T09:33:18.225Z,590
2017-02-26T09:33:58.490Z,585
2017-02-26T09:34:39.201Z,590
2017-02-26T09:35:20.278Z,600
2017-02-26T09:36:00.920Z,585
2017-02-26T09:36:42.456Z,560
2017-02-26T09:37:21.937Z,560
2017-02-26T09:38:02.793Z,560
2017-02-26T09:38:43.640Z,545
2017-02-26T09:39:24.670Z,520
2017-02-26T09:40:05.369Z,495
2017-02-26T09:40:46.218Z,485
2017-02-26T09:41:27.138Z,480
2017-02-26T09:42:07.916Z,490
2017-02-26T09:42:49.091Z,520
2017-02-26T09:43:29.843Z,560
2017-02-26T09:44:10.506Z,600
2017-02-26T09:44:51.477Z,640
2017-02-26T09:45:32.985Z,675